PGT3301 LTFM-LTBJ
Flight info
| Callsign | PGT3301 |
|---|---|
| Flight time | 0h 45m |
| Altitude | 26000 |
| Route | IVGUS1E/36 IVGUS M19 OVZOK |
| Aircraft | A20N/M-SDE2E3FGHIRWXY/LB1 |
Departure
| Time | 2026-05-06 14:31 |
|---|---|
| Airport | İstanbul Airport (LTFM) |
Arrival
| Time | 2026-05-06 15:16 |
|---|---|
| Airport | Adnan Menderes International Airport (LTBJ) |
| Time | Latitude | Longitude | Altitude | Speed | Heading |
|---|---|---|---|---|---|
| 2026-05-06 14:05 | 41.26103 | 28.74910 | 313 ft | 0 kts | 251° |
| 2026-05-06 14:22 | 41.26107 | 28.74924 | 312 ft | 2 kts | 250° |
| 2026-05-06 14:23 | 41.26113 | 28.74945 | 312 ft | 2 kts | 250° |
| 2026-05-06 14:23 | 41.26118 | 28.74966 | 311 ft | 2 kts | 250° |
| 2026-05-06 14:23 | 41.26123 | 28.74986 | 313 ft | 2 kts | 259° |
| 2026-05-06 14:23 | 41.26122 | 28.75007 | 312 ft | 2 kts | 318° |
| 2026-05-06 14:24 | 41.26108 | 28.75018 | 313 ft | 2 kts | 343° |
| 2026-05-06 14:24 | 41.26102 | 28.75020 | 313 ft | 0 kts | 341° |
| 2026-05-06 14:27 | 41.26109 | 28.75017 | 313 ft | 3 kts | 341° |
| 2026-05-06 14:27 | 41.26139 | 28.75004 | 313 ft | 6 kts | 341° |
| 2026-05-06 14:27 | 41.26162 | 28.74994 | 313 ft | 0 kts | 341° |
| 2026-05-06 14:28 | 41.26174 | 28.74988 | 312 ft | 7 kts | 341° |
| 2026-05-06 14:28 | 41.26235 | 28.75017 | 312 ft | 12 kts | 67° |
| 2026-05-06 14:28 | 41.26240 | 28.75143 | 313 ft | 15 kts | 89° |
| 2026-05-06 14:29 | 41.26243 | 28.75289 | 314 ft | 17 kts | 88° |
| 2026-05-06 14:29 | 41.26243 | 28.75442 | 314 ft | 16 kts | 90° |
| 2026-05-06 14:29 | 41.26244 | 28.75523 | 314 ft | 0 kts | 89° |
| 2026-05-06 14:29 | 41.26244 | 28.75525 | 314 ft | 1 kts | 89° |
| 2026-05-06 14:30 | 41.26245 | 28.75572 | 314 ft | 9 kts | 89° |
| 2026-05-06 14:30 | 41.26253 | 28.75660 | 314 ft | 8 kts | 47° |
| 2026-05-06 14:30 | 41.26318 | 28.75667 | 315 ft | 12 kts | 359° |
| 2026-05-06 14:30 | 41.26492 | 28.75665 | 310 ft | 55 kts | 359° |
| 2026-05-06 14:31 | 41.27111 | 28.75655 | 301 ft | 120 kts | 359° |
| 2026-05-06 14:31 | 41.28119 | 28.75637 | 330 ft | 162 kts | 2° |
| 2026-05-06 14:31 | 41.29221 | 28.75676 | 966 ft | 158 kts | 12° |
| 2026-05-06 14:31 | 41.30265 | 28.76175 | 1626 ft | 164 kts | 30° |
| 2026-05-06 14:32 | 41.31268 | 28.76967 | 2219 ft | 173 kts | 30° |
| 2026-05-06 14:32 | 41.32360 | 28.77816 | 2577 ft | 193 kts | 28° |
| 2026-05-06 14:32 | 41.33609 | 28.78755 | 2855 ft | 218 kts | 27° |
| 2026-05-06 14:32 | 41.35004 | 28.79777 | 3339 ft | 239 kts | 25° |
| 2026-05-06 14:33 | 41.36509 | 28.80879 | 3962 ft | 257 kts | 29° |
| 2026-05-06 14:33 | 41.37797 | 28.82596 | 4969 ft | 269 kts | 57° |
| 2026-05-06 14:33 | 41.38349 | 28.85004 | 6133 ft | 278 kts | 83° |
| 2026-05-06 14:33 | 41.38385 | 28.87613 | 7230 ft | 283 kts | 87° |
| 2026-05-06 14:34 | 41.38159 | 28.90216 | 8318 ft | 291 kts | 106° |
| 2026-05-06 14:34 | 41.37114 | 28.92574 | 9372 ft | 303 kts | 132° |
| 2026-05-06 14:34 | 41.35361 | 28.94188 | 10334 ft | 314 kts | 157° |
| 2026-05-06 14:34 | 41.33184 | 28.94832 | 10835 ft | 336 kts | 178° |
| 2026-05-06 14:35 | 41.30768 | 28.94744 | 11262 ft | 358 kts | 186° |
| 2026-05-06 14:35 | 41.28247 | 28.94472 | 12064 ft | 366 kts | 186° |
| 2026-05-06 14:35 | 41.25718 | 28.93964 | 13011 ft | 369 kts | 195° |
| 2026-05-06 14:35 | 41.23301 | 28.92877 | 13933 ft | 372 kts | 206° |
| 2026-05-06 14:36 | 41.20971 | 28.91287 | 14751 ft | 376 kts | 210° |
| 2026-05-06 14:36 | 41.18632 | 28.89670 | 15631 ft | 379 kts | 210° |
| 2026-05-06 14:36 | 41.16302 | 28.88082 | 16475 ft | 383 kts | 210° |
| 2026-05-06 14:36 | 41.13902 | 28.86456 | 17265 ft | 388 kts | 210° |
| 2026-05-06 14:37 | 41.11466 | 28.84811 | 18065 ft | 394 kts | 210° |
| 2026-05-06 14:37 | 41.09030 | 28.83167 | 18782 ft | 398 kts | 210° |
| 2026-05-06 14:37 | 41.06596 | 28.81352 | 19500 ft | 399 kts | 217° |
| 2026-05-06 14:37 | 41.04371 | 28.79193 | 20172 ft | 402 kts | 220° |
| 2026-05-06 14:38 | 41.02127 | 28.76934 | 20888 ft | 405 kts | 220° |
| 2026-05-06 14:38 | 40.99852 | 28.74651 | 21585 ft | 409 kts | 220° |
| 2026-05-06 14:38 | 40.97608 | 28.72405 | 22264 ft | 413 kts | 221° |
| 2026-05-06 14:38 | 40.95272 | 28.70073 | 22940 ft | 417 kts | 221° |
| 2026-05-06 14:39 | 40.93004 | 28.67720 | 23595 ft | 418 kts | 227° |
| 2026-05-06 14:39 | 40.91140 | 28.64779 | 24105 ft | 415 kts | 243° |
| 2026-05-06 14:39 | 40.89942 | 28.61330 | 24648 ft | 409 kts | 258° |
| 2026-05-06 14:39 | 40.89362 | 28.57710 | 25202 ft | 407 kts | 265° |
| 2026-05-06 14:40 | 40.88885 | 28.54008 | 25743 ft | 410 kts | 265° |
| 2026-05-06 14:40 | 40.88408 | 28.50268 | 26007 ft | 412 kts | 265° |
| 2026-05-06 14:40 | 40.87916 | 28.46525 | 26069 ft | 413 kts | 265° |
| 2026-05-06 14:40 | 40.87410 | 28.42785 | 26071 ft | 412 kts | 264° |
| 2026-05-06 14:41 | 40.86902 | 28.39090 | 26070 ft | 412 kts | 264° |
| 2026-05-06 14:41 | 40.86381 | 28.35342 | 26061 ft | 413 kts | 265° |
| 2026-05-06 14:41 | 40.85866 | 28.31654 | 26070 ft | 413 kts | 265° |
| 2026-05-06 14:41 | 40.85341 | 28.27901 | 26069 ft | 413 kts | 265° |
| 2026-05-06 14:42 | 40.84821 | 28.24190 | 26067 ft | 413 kts | 265° |
| 2026-05-06 14:42 | 40.84297 | 28.20451 | 26065 ft | 413 kts | 264° |
| 2026-05-06 14:42 | 40.83769 | 28.16701 | 26066 ft | 413 kts | 264° |
| 2026-05-06 14:42 | 40.83230 | 28.12967 | 26059 ft | 413 kts | 264° |
| 2026-05-06 14:43 | 40.82665 | 28.09245 | 26070 ft | 413 kts | 264° |
| 2026-05-06 14:43 | 40.82095 | 28.05528 | 26056 ft | 413 kts | 264° |
| 2026-05-06 14:43 | 40.81531 | 28.01854 | 26068 ft | 414 kts | 264° |
| 2026-05-06 14:43 | 40.80954 | 27.98088 | 26068 ft | 414 kts | 264° |
| 2026-05-06 14:44 | 40.80387 | 27.94386 | 26072 ft | 413 kts | 264° |
| 2026-05-06 14:44 | 40.79821 | 27.90656 | 26070 ft | 413 kts | 265° |
| 2026-05-06 14:44 | 40.79478 | 27.86940 | 26071 ft | 408 kts | 271° |
| 2026-05-06 14:45 | 40.79130 | 27.79514 | 26071 ft | 415 kts | 261° |
| 2026-05-06 14:45 | 40.78078 | 27.75872 | 26072 ft | 425 kts | 246° |
| 2026-05-06 14:45 | 40.76379 | 27.72679 | 26070 ft | 435 kts | 232° |
| 2026-05-06 14:45 | 40.74062 | 27.70014 | 26062 ft | 443 kts | 218° |
| 2026-05-06 14:46 | 40.71409 | 27.67970 | 26069 ft | 447 kts | 213° |
| 2026-05-06 14:46 | 40.68638 | 27.66048 | 26067 ft | 447 kts | 212° |
| 2026-05-06 14:46 | 40.65874 | 27.64150 | 26069 ft | 447 kts | 212° |
| 2026-05-06 14:46 | 40.63137 | 27.62242 | 26066 ft | 447 kts | 212° |
| 2026-05-06 14:47 | 40.60389 | 27.60307 | 26066 ft | 446 kts | 211° |
| 2026-05-06 14:47 | 40.57485 | 27.58840 | 26059 ft | 454 kts | 198° |
| 2026-05-06 14:47 | 40.54334 | 27.58224 | 26062 ft | 460 kts | 184° |
| 2026-05-06 14:47 | 40.51157 | 27.58456 | 26062 ft | 463 kts | 176° |
| 2026-05-06 14:48 | 40.47950 | 27.58862 | 26059 ft | 463 kts | 176° |
| 2026-05-06 14:48 | 40.44720 | 27.59270 | 26063 ft | 462 kts | 176° |
| 2026-05-06 14:48 | 40.41552 | 27.59666 | 26059 ft | 463 kts | 176° |
| 2026-05-06 14:48 | 40.38323 | 27.60065 | 26054 ft | 463 kts | 176° |
| 2026-05-06 14:49 | 40.35112 | 27.60238 | 26060 ft | 460 kts | 184° |
| 2026-05-06 14:49 | 40.31961 | 27.59872 | 26060 ft | 457 kts | 192° |
| 2026-05-06 14:49 | 40.28797 | 27.59245 | 26059 ft | 457 kts | 192° |
| 2026-05-06 14:49 | 40.25666 | 27.58631 | 26059 ft | 458 kts | 192° |
| 2026-05-06 14:50 | 40.22504 | 27.58017 | 26058 ft | 457 kts | 192° |
| 2026-05-06 14:50 | 40.19344 | 27.57408 | 26047 ft | 457 kts | 192° |
| 2026-05-06 14:50 | 40.16226 | 27.56809 | 26048 ft | 457 kts | 192° |
| 2026-05-06 14:50 | 40.13070 | 27.56204 | 26047 ft | 457 kts | 192° |
| 2026-05-06 14:51 | 40.09953 | 27.55606 | 26055 ft | 457 kts | 192° |
| 2026-05-06 14:51 | 40.06786 | 27.54999 | 26052 ft | 456 kts | 192° |
| 2026-05-06 14:51 | 40.03626 | 27.54394 | 26049 ft | 457 kts | 192° |
| 2026-05-06 14:51 | 40.00498 | 27.53795 | 26039 ft | 457 kts | 192° |
| 2026-05-06 14:52 | 39.97354 | 27.53195 | 26053 ft | 456 kts | 192° |
| 2026-05-06 14:52 | 39.94227 | 27.52598 | 26046 ft | 456 kts | 192° |
| 2026-05-06 14:52 | 39.91057 | 27.51992 | 26042 ft | 457 kts | 192° |
| 2026-05-06 14:52 | 39.87941 | 27.51399 | 26054 ft | 456 kts | 192° |
| 2026-05-06 14:53 | 39.84775 | 27.50796 | 26051 ft | 457 kts | 192° |
| 2026-05-06 14:53 | 39.81665 | 27.50205 | 26043 ft | 457 kts | 192° |
| 2026-05-06 14:53 | 39.78509 | 27.49605 | 26047 ft | 457 kts | 192° |
| 2026-05-06 14:53 | 39.75354 | 27.49055 | 26047 ft | 458 kts | 189° |
| 2026-05-06 14:54 | 39.72167 | 27.48721 | 26045 ft | 459 kts | 187° |
| 2026-05-06 14:54 | 39.69007 | 27.48467 | 26045 ft | 459 kts | 187° |
| 2026-05-06 14:54 | 39.65816 | 27.48207 | 26046 ft | 459 kts | 187° |
| 2026-05-06 14:54 | 39.62629 | 27.47926 | 26045 ft | 459 kts | 187° |
| 2026-05-06 14:55 | 39.59448 | 27.47628 | 26045 ft | 459 kts | 187° |
| 2026-05-06 14:55 | 39.56250 | 27.47319 | 26034 ft | 460 kts | 188° |
| 2026-05-06 14:55 | 39.53075 | 27.47007 | 26048 ft | 460 kts | 188° |
| 2026-05-06 14:55 | 39.49857 | 27.46689 | 26047 ft | 460 kts | 188° |
| 2026-05-06 14:56 | 39.46691 | 27.46377 | 26047 ft | 460 kts | 188° |
| 2026-05-06 14:56 | 39.43481 | 27.46060 | 26044 ft | 460 kts | 188° |
| 2026-05-06 14:56 | 39.40317 | 27.45750 | 26043 ft | 460 kts | 188° |
| 2026-05-06 14:56 | 39.37110 | 27.45435 | 26043 ft | 460 kts | 188° |
| 2026-05-06 14:57 | 39.33932 | 27.45123 | 26039 ft | 460 kts | 188° |
| 2026-05-06 14:57 | 39.30727 | 27.44809 | 26043 ft | 461 kts | 188° |
| 2026-05-06 14:57 | 39.27509 | 27.44494 | 26043 ft | 461 kts | 188° |
| 2026-05-06 14:57 | 39.24349 | 27.44185 | 26037 ft | 460 kts | 188° |
| 2026-05-06 14:58 | 39.21157 | 27.43874 | 25776 ft | 458 kts | 188° |
| 2026-05-06 14:58 | 39.17982 | 27.43563 | 25123 ft | 459 kts | 188° |
| 2026-05-06 14:58 | 39.14806 | 27.43250 | 24261 ft | 463 kts | 187° |
| 2026-05-06 14:58 | 39.11572 | 27.42933 | 23365 ft | 465 kts | 187° |
| 2026-05-06 14:59 | 39.08344 | 27.42619 | 22628 ft | 460 kts | 187° |
| 2026-05-06 14:59 | 39.05197 | 27.42314 | 21950 ft | 454 kts | 187° |
| 2026-05-06 14:59 | 39.02079 | 27.42013 | 21298 ft | 448 kts | 187° |
| 2026-05-06 14:59 | 38.98983 | 27.41712 | 20703 ft | 441 kts | 187° |
| 2026-05-06 15:00 | 38.95958 | 27.41418 | 20122 ft | 435 kts | 187° |
| 2026-05-06 15:00 | 38.92946 | 27.41125 | 19538 ft | 429 kts | 187° |
| 2026-05-06 15:00 | 38.90009 | 27.40840 | 18937 ft | 424 kts | 187° |
| 2026-05-06 15:00 | 38.87065 | 27.40553 | 18367 ft | 419 kts | 187° |
| 2026-05-06 15:01 | 38.85148 | 27.40367 | 17964 ft | 415 kts | 186° |
| 2026-05-06 15:01 | 38.81354 | 27.40001 | 17192 ft | 406 kts | 186° |
| 2026-05-06 15:01 | 38.78561 | 27.39731 | 16647 ft | 399 kts | 186° |
| 2026-05-06 15:01 | 38.75807 | 27.39467 | 16103 ft | 393 kts | 186° |
| 2026-05-06 15:02 | 38.73989 | 27.39292 | 15744 ft | 390 kts | 186° |
| 2026-05-06 15:02 | 38.71279 | 27.39030 | 15204 ft | 386 kts | 186° |
| 2026-05-06 15:02 | 38.68650 | 27.38776 | 14680 ft | 382 kts | 186° |
| 2026-05-06 15:02 | 38.66003 | 27.38520 | 14147 ft | 378 kts | 186° |
| 2026-05-06 15:03 | 38.63389 | 27.38268 | 13604 ft | 375 kts | 186° |
| 2026-05-06 15:03 | 38.60797 | 27.38019 | 13070 ft | 370 kts | 186° |
| 2026-05-06 15:03 | 38.58265 | 27.37776 | 12571 ft | 366 kts | 186° |
| 2026-05-06 15:03 | 38.55733 | 27.37532 | 12065 ft | 362 kts | 186° |
| 2026-05-06 15:04 | 38.53223 | 27.37291 | 11558 ft | 359 kts | 186° |
| 2026-05-06 15:04 | 38.50767 | 27.37055 | 11069 ft | 355 kts | 185° |
| 2026-05-06 15:04 | 38.48302 | 27.36817 | 10573 ft | 352 kts | 185° |
| 2026-05-06 15:04 | 38.45884 | 27.36586 | 10319 ft | 340 kts | 185° |
| 2026-05-06 15:05 | 38.43587 | 27.36367 | 10189 ft | 327 kts | 185° |
| 2026-05-06 15:05 | 38.41387 | 27.36160 | 10049 ft | 312 kts | 185° |
| 2026-05-06 15:05 | 38.39282 | 27.35960 | 9878 ft | 294 kts | 185° |
| 2026-05-06 15:05 | 38.37257 | 27.35767 | 9483 ft | 287 kts | 185° |
| 2026-05-06 15:06 | 38.35263 | 27.35576 | 9130 ft | 292 kts | 185° |
| 2026-05-06 15:06 | 38.33226 | 27.35379 | 8769 ft | 291 kts | 185° |
| 2026-05-06 15:06 | 38.31219 | 27.35187 | 8408 ft | 288 kts | 185° |
| 2026-05-06 15:06 | 38.29245 | 27.34999 | 8073 ft | 284 kts | 185° |
| 2026-05-06 15:07 | 38.27277 | 27.34812 | 7721 ft | 283 kts | 185° |
| 2026-05-06 15:07 | 38.25331 | 27.34628 | 7374 ft | 281 kts | 185° |
| 2026-05-06 15:07 | 38.23388 | 27.34443 | 7019 ft | 279 kts | 185° |
| 2026-05-06 15:07 | 38.21446 | 27.34259 | 6677 ft | 277 kts | 185° |
| 2026-05-06 15:08 | 38.19527 | 27.34077 | 6337 ft | 278 kts | 184° |
| 2026-05-06 15:08 | 38.17631 | 27.33899 | 6227 ft | 266 kts | 184° |
| 2026-05-06 15:08 | 38.15856 | 27.33732 | 6034 ft | 252 kts | 185° |
| 2026-05-06 15:08 | 38.14099 | 27.33567 | 5599 ft | 250 kts | 185° |
| 2026-05-06 15:09 | 38.12383 | 27.33405 | 5171 ft | 248 kts | 185° |
| 2026-05-06 15:09 | 38.10671 | 27.33245 | 5047 ft | 251 kts | 185° |
| 2026-05-06 15:09 | 38.08948 | 27.32880 | 4981 ft | 246 kts | 204° |
| 2026-05-06 15:09 | 38.07653 | 27.31666 | 4894 ft | 227 kts | 236° |
| 2026-05-06 15:10 | 38.07052 | 27.29880 | 4709 ft | 216 kts | 261° |
| 2026-05-06 15:10 | 38.06753 | 27.28032 | 4498 ft | 211 kts | 263° |
| 2026-05-06 15:10 | 38.06480 | 27.26216 | 4310 ft | 213 kts | 262° |
| 2026-05-06 15:10 | 38.06333 | 27.24381 | 4124 ft | 206 kts | 282° |
| 2026-05-06 15:11 | 38.06890 | 27.22799 | 4072 ft | 191 kts | 313° |
| 2026-05-06 15:11 | 38.07953 | 27.21879 | 3962 ft | 183 kts | 342° |
| 2026-05-06 15:11 | 38.09161 | 27.21523 | 3793 ft | 180 kts | 347° |
| 2026-05-06 15:11 | 38.10392 | 27.21166 | 3522 ft | 180 kts | 346° |
| 2026-05-06 15:12 | 38.11614 | 27.20804 | 3385 ft | 172 kts | 345° |
| 2026-05-06 15:12 | 38.12715 | 27.20471 | 3289 ft | 159 kts | 345° |
| 2026-05-06 15:12 | 38.13792 | 27.20140 | 3024 ft | 159 kts | 345° |
| 2026-05-06 15:12 | 38.14871 | 27.19815 | 2737 ft | 159 kts | 344° |
| 2026-05-06 15:13 | 38.15947 | 27.19491 | 2445 ft | 161 kts | 344° |
| 2026-05-06 15:13 | 38.17033 | 27.19165 | 2196 ft | 159 kts | 343° |
| 2026-05-06 15:13 | 38.18096 | 27.18848 | 2024 ft | 159 kts | 344° |
| 2026-05-06 15:13 | 38.19218 | 27.18504 | 1997 ft | 164 kts | 344° |
| 2026-05-06 15:14 | 38.20293 | 27.18178 | 1990 ft | 156 kts | 344° |
| 2026-05-06 15:14 | 38.21276 | 27.17887 | 1885 ft | 135 kts | 344° |
| 2026-05-06 15:14 | 38.22156 | 27.17623 | 1655 ft | 127 kts | 343° |
| 2026-05-06 15:14 | 38.22999 | 27.17374 | 1392 ft | 124 kts | 342° |
| 2026-05-06 15:15 | 38.23822 | 27.17114 | 1246 ft | 119 kts | 342° |
| 2026-05-06 15:15 | 38.24636 | 27.16856 | 1085 ft | 123 kts | 341° |
| 2026-05-06 15:15 | 38.25463 | 27.16598 | 890 ft | 123 kts | 345° |
| 2026-05-06 15:15 | 38.26301 | 27.16361 | 692 ft | 120 kts | 345° |
| 2026-05-06 15:16 | 38.27111 | 27.16121 | 549 ft | 120 kts | 346° |
| 2026-05-06 15:16 | 38.27930 | 27.15874 | 384 ft | 120 kts | 344° |
| 2026-05-06 15:16 | 38.28590 | 27.15672 | 384 ft | 71 kts | 347° |
| 2026-05-06 15:16 | 38.28937 | 27.15569 | 389 ft | 25 kts | 347° |
| 2026-05-06 15:17 | 38.29051 | 27.15522 | 391 ft | 10 kts | 302° |
| 2026-05-06 15:17 | 38.29041 | 27.15436 | 391 ft | 9 kts | 257° |
| 2026-05-06 15:17 | 38.29029 | 27.15365 | 391 ft | 0 kts | 257° |
| 2026-05-06 15:18 | 38.29026 | 27.15349 | 391 ft | 5 kts | 257° |
| 2026-05-06 15:18 | 38.29013 | 27.15280 | 391 ft | 11 kts | 256° |
| 2026-05-06 15:19 | 38.29041 | 27.15225 | 391 ft | 9 kts | 339° |
| 2026-05-06 15:19 | 38.29102 | 27.15201 | 392 ft | 6 kts | 334° |
| 2026-05-06 15:19 | 38.29103 | 27.15152 | 392 ft | 7 kts | 256° |
| 2026-05-06 15:19 | 38.29096 | 27.15113 | 392 ft | 0 kts | 257° |